createdAt,value
2023-03-17T00:00:04.822Z,6.70
2023-03-17T00:01:04.814Z,6.80
2023-03-17T00:02:04.846Z,5.60
2023-03-17T00:03:04.762Z,6.00
2023-03-17T00:04:04.811Z,5.60
2023-03-17T00:05:04.743Z,6.80
2023-03-17T00:06:04.739Z,5.70
2023-03-17T00:07:04.733Z,5.10
2023-03-17T00:08:04.733Z,5.50
2023-03-17T00:09:04.682Z,5.30
2023-03-17T00:10:04.702Z,5.70
2023-03-17T00:11:04.650Z,5.90
2023-03-17T00:12:04.697Z,7.90
2023-03-17T00:13:04.631Z,8.50
2023-03-17T00:14:04.645Z,7.80
2023-03-17T00:15:04.585Z,7.60
2023-03-17T00:16:04.758Z,8.50
2023-03-17T00:17:04.596Z,9.20
2023-03-17T00:18:04.576Z,7.50
2023-03-17T00:19:04.565Z,7.80
2023-03-17T00:20:04.582Z,7.80
2023-03-17T00:21:04.531Z,7.10
2023-03-17T00:22:04.536Z,8.10
2023-03-17T00:23:04.482Z,7.90
2023-03-17T00:24:04.549Z,8.00
2023-03-17T00:25:04.485Z,11.60
2023-03-17T00:26:04.469Z,8.70
2023-03-17T00:27:04.454Z,9.40
2023-03-17T00:28:04.451Z,7.80
2023-03-17T00:29:04.422Z,7.50
2023-03-17T00:30:04.419Z,8.90
2023-03-17T00:31:04.400Z,9.90
2023-03-17T00:32:04.459Z,6.60
2023-03-17T00:33:04.402Z,8.30
2023-03-17T00:34:04.385Z,9.60
2023-03-17T00:35:04.334Z,8.30
2023-03-17T00:36:05.302Z,8.60
2023-03-17T00:37:04.327Z,10.50
2023-03-17T00:38:04.327Z,8.00
2023-03-17T00:39:04.302Z,8.80
2023-03-17T00:40:04.292Z,8.10
2023-03-17T00:41:04.256Z,7.50
2023-03-17T00:42:04.294Z,8.90
2023-03-17T00:43:04.228Z,10.60
2023-03-17T00:44:04.242Z,9.00
2023-03-17T00:45:04.201Z,9.50
2023-03-17T00:46:04.197Z,7.80
2023-03-17T00:47:04.315Z,9.00
2023-03-17T00:48:04.199Z,10.30
2023-03-17T00:49:04.198Z,10.10
2023-03-17T00:50:04.162Z,8.80
2023-03-17T00:51:04.137Z,8.70
2023-03-17T00:52:04.147Z,9.20
2023-03-17T00:53:04.102Z,8.80
2023-03-17T00:54:04.161Z,11.10
2023-03-17T00:55:04.109Z,11.20
2023-03-17T00:56:04.111Z,9.00
2023-03-17T00:57:04.038Z,9.20
2023-03-17T00:58:04.051Z,12.30
2023-03-17T00:59:04.014Z,13.60
2023-03-17T01:00:04.036Z,9.80
2023-03-17T01:01:04.106Z,11.60
2023-03-17T01:02:04.016Z,9.90
2023-03-17T01:03:03.966Z,8.60
2023-03-17T01:04:03.982Z,8.30
2023-03-17T01:05:06.616Z,10.90
2023-03-17T01:06:03.952Z,11.50
2023-03-17T01:07:03.903Z,9.70
2023-03-17T01:08:03.917Z,9.50
2023-03-17T01:09:03.894Z,11.70
2023-03-17T01:10:03.914Z,9.20
2023-03-17T01:11:03.854Z,9.40
2023-03-17T01:12:03.882Z,9.00
2023-03-17T01:13:03.835Z,8.30
2023-03-17T01:14:03.837Z,9.00
2023-03-17T01:15:03.824Z,11.40
2023-03-17T01:16:03.913Z,8.20
2023-03-17T01:17:03.792Z,10.80
2023-03-17T01:18:03.784Z,10.00
2023-03-17T01:19:03.754Z,9.80
2023-03-17T01:20:03.793Z,10.20
2023-03-17T01:21:03.737Z,9.20
2023-03-17T01:22:03.749Z,8.00
2023-03-17T01:23:03.688Z,7.60
2023-03-17T01:24:03.724Z,9.70
2023-03-17T01:25:03.694Z,8.80
2023-03-17T01:26:03.732Z,10.00
2023-03-17T01:27:03.668Z,7.20
2023-03-17T01:28:03.691Z,8.70
2023-03-17T01:29:03.605Z,8.50
2023-03-17T01:30:03.617Z,7.10
2023-03-17T01:31:03.613Z,7.80
2023-03-17T01:32:03.646Z,9.30
2023-03-17T01:33:03.657Z,10.70
2023-03-17T01:34:03.575Z,9.30
2023-03-17T01:35:03.533Z,8.30
2023-03-17T01:36:03.650Z,9.80
2023-03-17T01:37:03.505Z,7.70
2023-03-17T01:38:03.533Z,8.70
2023-03-17T01:39:03.468Z,7.50
2023-03-17T01:40:03.485Z,9.80
2023-03-17T01:41:03.507Z,7.60
2023-03-17T01:42:03.499Z,9.20
2023-03-17T01:43:03.449Z,8.10
2023-03-17T01:44:03.437Z,8.00
2023-03-17T01:45:03.406Z,8.90
2023-03-17T01:46:03.540Z,8.30
2023-03-17T01:47:03.395Z,8.40
2023-03-17T01:48:03.405Z,6.50
2023-03-17T01:49:03.336Z,10.80
2023-03-17T01:50:03.359Z,8.40
2023-03-17T01:51:03.307Z,10.50
2023-03-17T01:52:03.365Z,8.20
2023-03-17T01:53:03.299Z,9.20
2023-03-17T01:54:03.321Z,9.80
2023-03-17T01:55:03.307Z,9.70
2023-03-17T01:56:03.276Z,7.60
2023-03-17T01:57:03.273Z,9.70
2023-03-17T01:58:03.243Z,8.30
2023-03-17T01:59:03.232Z,7.90
2023-03-17T02:00:03.264Z,10.80
2023-03-17T02:01:03.213Z,9.80
2023-03-17T02:02:03.214Z,9.10
2023-03-17T02:03:03.165Z,8.50
2023-03-17T02:04:03.189Z,9.00
2023-03-17T02:05:03.135Z,8.40
2023-03-17T02:06:03.149Z,8.50
2023-03-17T02:07:03.127Z,7.40
2023-03-17T02:08:03.130Z,10.70
2023-03-17T02:09:03.117Z,10.70
2023-03-17T02:10:03.084Z,9.10
2023-03-17T02:11:03.052Z,9.00
2023-03-17T02:12:03.071Z,7.30
2023-03-17T02:13:03.051Z,8.30
2023-03-17T02:14:03.035Z,10.80
2023-03-17T02:15:03.023Z,10.30
2023-03-17T02:16:03.020Z,8.50
2023-03-17T02:17:02.961Z,8.90
2023-03-17T02:18:03.013Z,7.40
2023-03-17T02:19:02.973Z,7.80
2023-03-17T02:20:02.946Z,7.30
2023-03-17T02:21:02.908Z,8.60
2023-03-17T02:22:02.974Z,9.50
2023-03-17T02:23:02.884Z,8.40
2023-03-17T02:24:02.910Z,8.70
2023-03-17T02:25:02.895Z,7.50
2023-03-17T02:26:02.848Z,11.50
2023-03-17T02:27:02.873Z,6.20
2023-03-17T02:28:02.822Z,8.40
2023-03-17T02:29:02.849Z,8.40
2023-03-17T02:30:02.808Z,8.40
2023-03-17T02:31:02.858Z,9.90
2023-03-17T02:32:02.767Z,8.40
2023-03-17T02:33:02.837Z,7.90
2023-03-17T02:34:02.749Z,6.90
2023-03-17T02:35:02.778Z,8.80
2023-03-17T02:36:02.739Z,8.70
2023-03-17T02:37:02.719Z,8.70
2023-03-17T02:38:02.700Z,8.30
2023-03-17T02:39:02.700Z,8.80
2023-03-17T02:40:02.714Z,8.90
2023-03-17T02:41:02.769Z,13.50
2023-03-17T02:42:02.639Z,8.50
2023-03-17T02:43:02.650Z,11.10
2023-03-17T02:44:02.614Z,8.10
2023-03-17T02:45:02.661Z,8.40
2023-03-17T02:46:02.692Z,8.80
2023-03-17T02:47:02.622Z,10.20
2023-03-17T02:48:02.551Z,9.10
2023-03-17T02:49:02.581Z,7.50
2023-03-17T02:50:02.541Z,8.90
2023-03-17T02:51:02.551Z,8.20
2023-03-17T02:52:02.512Z,11.70
2023-03-17T02:53:02.516Z,10.20
2023-03-17T02:54:02.554Z,8.40
2023-03-17T02:55:02.480Z,9.70
2023-03-17T02:56:02.502Z,9.80
2023-03-17T02:57:02.493Z,9.00
2023-03-17T02:58:02.417Z,8.10
2023-03-17T02:59:02.432Z,10.10
2023-03-17T03:00:02.426Z,10.10
2023-03-17T03:01:02.549Z,8.10
2023-03-17T03:02:02.385Z,9.30
2023-03-17T03:03:02.379Z,9.70
2023-03-17T03:04:02.386Z,8.80
2023-03-17T03:05:02.383Z,10.60
2023-03-17T03:06:03.191Z,8.80
2023-03-17T03:07:02.341Z,8.80
2023-03-17T03:08:02.316Z,11.10
2023-03-17T03:09:02.318Z,8.10
2023-03-17T03:10:02.281Z,9.10
2023-03-17T03:11:02.281Z,11.60
2023-03-17T03:12:02.260Z,8.70
2023-03-17T03:13:02.259Z,8.80
2023-03-17T03:14:02.209Z,8.70
2023-03-17T03:15:02.246Z,9.90
2023-03-17T03:16:02.257Z,8.50
2023-03-17T03:17:02.215Z,10.20
2023-03-17T03:18:02.176Z,8.80
2023-03-17T03:19:02.272Z,7.60
2023-03-17T03:20:02.141Z,8.90
2023-03-17T03:21:02.148Z,8.70
2023-03-17T03:22:02.103Z,9.50
2023-03-17T03:23:02.135Z,9.10
2023-03-17T03:24:02.100Z,8.40
2023-03-17T03:25:02.139Z,8.40
2023-03-17T03:26:02.077Z,8.80
2023-03-17T03:27:02.088Z,7.90
2023-03-17T03:28:02.040Z,9.10
2023-03-17T03:29:02.084Z,8.00
2023-03-17T03:30:02.025Z,9.30
2023-03-17T03:31:02.032Z,10.10
2023-03-17T03:32:01.981Z,8.90
2023-03-17T03:33:02.068Z,9.50
2023-03-17T03:34:01.993Z,10.80
2023-03-17T03:35:02.013Z,10.00
2023-03-17T03:36:02.139Z,11.80
2023-03-17T03:37:01.951Z,8.00
2023-03-17T03:38:01.904Z,8.70
2023-03-17T03:39:01.929Z,10.80
2023-03-17T03:40:01.899Z,7.20
2023-03-17T03:41:01.884Z,6.00
2023-03-17T03:42:01.863Z,7.40
2023-03-17T03:43:10.158Z,6.90
2023-03-17T03:44:01.836Z,8.80
2023-03-17T03:45:01.843Z,6.50
2023-03-17T03:46:01.993Z,7.30
2023-03-17T03:47:01.823Z,9.30
2023-03-17T03:48:01.763Z,7.80
2023-03-17T03:49:01.787Z,7.60
2023-03-17T03:50:01.815Z,9.70
2023-03-17T03:51:01.745Z,6.60
2023-03-17T03:52:01.719Z,9.20
2023-03-17T03:53:01.722Z,8.20
2023-03-17T03:54:01.680Z,7.80
2023-03-17T03:55:01.696Z,8.30
2023-03-17T03:56:01.673Z,6.70
2023-03-17T03:57:01.686Z,9.30
2023-03-17T03:58:01.666Z,8.20
2023-03-17T03:59:01.643Z,7.60
2023-03-17T04:00:01.606Z,8.90
2023-03-17T04:01:01.672Z,8.00
2023-03-17T04:02:01.580Z,9.00
2023-03-17T04:03:01.710Z,8.90
2023-03-17T04:04:01.578Z,7.60
2023-03-17T04:05:01.581Z,9.30
2023-03-17T04:06:01.524Z,10.40
2023-03-17T04:07:01.574Z,9.20
2023-03-17T04:08:01.501Z,10.10
2023-03-17T04:09:01.520Z,9.60
2023-03-17T04:10:01.490Z,9.60
2023-03-17T04:11:01.496Z,8.10
2023-03-17T04:12:01.476Z,5.80
2023-03-17T04:13:01.514Z,8.00
2023-03-17T04:14:01.424Z,11.10
2023-03-17T04:15:01.457Z,8.00
2023-03-17T04:16:01.465Z,5.80
2023-03-17T04:17:01.417Z,8.20
2023-03-17T04:18:01.416Z,7.10
2023-03-17T04:19:01.422Z,9.50
2023-03-17T04:20:01.335Z,8.00
2023-03-17T04:21:01.377Z,9.00
2023-03-17T04:22:01.332Z,7.80
2023-03-17T04:23:01.372Z,8.00
2023-03-17T04:24:01.330Z,10.30
2023-03-17T04:25:01.306Z,6.90
2023-03-17T04:26:01.268Z,7.20
2023-03-17T04:27:01.277Z,7.50
2023-03-17T04:28:01.265Z,8.00
2023-03-17T04:29:01.275Z,7.40
2023-03-17T04:30:01.237Z,7.20
2023-03-17T04:31:01.216Z,10.90
2023-03-17T04:32:01.184Z,7.50
2023-03-17T04:33:01.355Z,8.90
2023-03-17T04:34:01.185Z,6.90
2023-03-17T04:35:01.190Z,6.40
2023-03-17T04:36:01.172Z,7.50
2023-03-17T04:37:01.153Z,7.40
2023-03-17T04:38:01.121Z,6.60
2023-03-17T04:39:01.143Z,8.30
2023-03-17T04:40:01.079Z,8.50
2023-03-17T04:41:01.105Z,7.80
2023-03-17T04:42:01.063Z,10.00
2023-03-17T04:43:03.397Z,12.20
2023-03-17T04:44:01.078Z,10.20
2023-03-17T04:45:01.049Z,12.80
2023-03-17T04:46:01.060Z,10.20
2023-03-17T04:47:01.038Z,10.50
2023-03-17T04:48:00.967Z,10.10
2023-03-17T04:49:01.008Z,12.00
2023-03-17T04:50:00.947Z,13.00
2023-03-17T04:51:00.968Z,9.20
2023-03-17T04:52:00.939Z,9.40
2023-03-17T04:53:00.930Z,7.70
2023-03-17T04:54:00.888Z,10.00
2023-03-17T04:55:00.935Z,8.50
2023-03-17T04:56:00.872Z,11.40
2023-03-17T04:57:00.873Z,8.80
2023-03-17T04:58:00.884Z,10.90
2023-03-17T04:59:00.874Z,23.30
2023-03-17T05:00:00.818Z,45.80
2023-03-17T05:01:00.893Z,51.50
2023-03-17T05:02:00.849Z,55.60
2023-03-17T05:03:00.851Z,53.40
2023-03-17T05:04:00.769Z,47.60
2023-03-17T05:05:00.807Z,38.20
2023-03-17T05:06:00.756Z,22.50
2023-03-17T05:07:00.777Z,20.90
2023-03-17T05:08:00.732Z,19.80
2023-03-17T05:09:00.738Z,19.60
2023-03-17T05:10:00.703Z,15.70
2023-03-17T05:11:00.711Z,12.50
2023-03-17T05:12:00.705Z,14.60
2023-03-17T05:13:00.686Z,13.20
2023-03-17T05:14:00.625Z,12.00
2023-03-17T05:15:00.709Z,11.00
2023-03-17T05:16:00.614Z,11.40
2023-03-17T05:17:00.640Z,9.20
2023-03-17T05:18:00.587Z,13.20
2023-03-17T05:19:00.611Z,10.70
2023-03-17T05:20:00.594Z,11.00
2023-03-17T05:21:00.573Z,10.40
2023-03-17T05:22:00.563Z,8.60
2023-03-17T05:23:00.552Z,11.80
2023-03-17T05:24:00.523Z,10.60
2023-03-17T05:25:00.522Z,11.20
2023-03-17T05:26:00.510Z,8.00
2023-03-17T05:27:00.526Z,10.50
2023-03-17T05:28:00.453Z,11.10
2023-03-17T05:29:00.459Z,10.50
2023-03-17T05:30:00.423Z,13.00
2023-03-17T05:31:00.464Z,13.20
2023-03-17T05:32:00.434Z,15.50
2023-03-17T05:33:00.476Z,15.20
2023-03-17T05:34:00.390Z,17.60
2023-03-17T05:35:00.494Z,19.20
2023-03-17T05:36:00.424Z,16.30
2023-03-17T05:37:00.382Z,18.40
2023-03-17T05:38:00.332Z,14.60
2023-03-17T05:39:00.358Z,16.80
2023-03-17T05:40:00.323Z,17.20
2023-03-17T05:41:00.337Z,16.20
2023-03-17T05:42:00.276Z,15.70
2023-03-17T05:43:00.287Z,17.10
2023-03-17T05:44:00.266Z,14.90
2023-03-17T05:45:00.254Z,19.40
2023-03-17T05:46:00.322Z,15.10
2023-03-17T05:47:00.242Z,16.30
2023-03-17T05:48:00.205Z,14.20
2023-03-17T05:49:00.212Z,14.30
2023-03-17T05:50:00.187Z,18.60
2023-03-17T05:51:00.175Z,19.50
2023-03-17T05:52:00.167Z,17.90
2023-03-17T05:53:00.172Z,15.50
2023-03-17T05:54:00.152Z,18.40
2023-03-17T05:55:00.154Z,16.80
2023-03-17T05:56:00.135Z,13.90
2023-03-17T05:57:00.128Z,13.40
2023-03-17T05:58:00.101Z,14.80
2023-03-17T05:59:00.104Z,17.20
2023-03-17T06:00:00.080Z,17.30
2023-03-17T06:01:00.095Z,14.30
2023-03-17T06:02:00.059Z,13.70
2023-03-17T06:03:00.062Z,13.50
2023-03-17T06:04:00.010Z,10.90
2023-03-17T06:05:00.037Z,14.20
2023-03-17T06:05:59.974Z,10.60
2023-03-17T06:06:59.977Z,10.10
2023-03-17T06:07:59.973Z,9.40
2023-03-17T06:08:59.946Z,10.80
2023-03-17T06:09:59.928Z,8.80
2023-03-17T06:10:59.933Z,13.10
2023-03-17T06:11:59.907Z,10.20
2023-03-17T06:13:01.514Z,10.90
2023-03-17T06:13:59.853Z,10.90
2023-03-17T06:14:59.902Z,8.60
2023-03-17T06:15:59.938Z,11.50
2023-03-17T06:16:59.890Z,9.30
2023-03-17T06:17:59.839Z,10.20
2023-03-17T06:18:59.820Z,11.10
2023-03-17T06:19:59.777Z,11.40
2023-03-17T06:20:59.807Z,7.90
2023-03-17T06:21:59.767Z,9.80
2023-03-17T06:23:04.558Z,9.50
2023-03-17T06:23:59.736Z,11.30
2023-03-17T06:24:59.754Z,11.40
2023-03-17T06:25:59.711Z,10.60
2023-03-17T06:26:59.733Z,10.30
2023-03-17T06:27:59.686Z,9.60
2023-03-17T06:28:59.685Z,10.00
2023-03-17T06:29:59.648Z,10.10
2023-03-17T06:30:59.729Z,9.60
2023-03-17T06:32:17.043Z,10.80
2023-03-17T06:32:59.651Z,13.00
2023-03-17T06:33:59.607Z,10.50
2023-03-17T06:34:59.615Z,11.10
2023-03-17T06:35:59.635Z,9.70
2023-03-17T06:36:59.603Z,9.10
2023-03-17T06:37:59.557Z,12.00
2023-03-17T06:38:59.570Z,8.60
2023-03-17T06:39:59.551Z,9.50
2023-03-17T06:40:59.526Z,9.50
2023-03-17T06:41:59.543Z,9.40
2023-03-17T06:42:59.484Z,10.90
2023-03-17T06:43:59.498Z,11.60
2023-03-17T06:44:59.459Z,9.50
2023-03-17T06:45:59.505Z,10.30
2023-03-17T06:46:59.460Z,10.90
2023-03-17T06:47:59.445Z,10.90
2023-03-17T06:48:59.427Z,12.70
2023-03-17T06:49:59.412Z,10.90
2023-03-17T06:50:59.381Z,14.20
2023-03-17T06:51:59.407Z,11.50
2023-03-17T06:52:59.402Z,17.80
2023-03-17T06:53:59.370Z,15.00
2023-03-17T06:54:59.343Z,14.40
2023-03-17T06:55:59.338Z,15.40
2023-03-17T06:56:59.308Z,16.80
2023-03-17T06:57:59.326Z,14.30
2023-03-17T06:58:59.299Z,14.30
2023-03-17T06:59:59.290Z,13.70
2023-03-17T07:00:59.243Z,13.70
2023-03-17T07:01:59.287Z,13.40
2023-03-17T07:02:59.242Z,11.00
2023-03-17T07:03:59.245Z,13.90
2023-03-17T07:04:59.301Z,13.70
2023-03-17T07:05:59.213Z,13.80
2023-03-17T07:06:59.250Z,11.20
2023-03-17T07:07:59.184Z,12.30
2023-03-17T07:09:01.965Z,17.90
2023-03-17T07:09:59.244Z,14.10
2023-03-17T07:10:59.108Z,15.30
2023-03-17T07:11:59.127Z,13.50
2023-03-17T07:12:59.095Z,14.70
2023-03-17T07:13:59.109Z,16.30
2023-03-17T07:14:59.082Z,15.40
2023-03-17T07:16:00.686Z,14.20
2023-03-17T07:16:59.030Z,17.60
2023-03-17T07:17:59.072Z,16.20
2023-03-17T07:18:59.023Z,16.50
2023-03-17T07:19:59.018Z,16.40
2023-03-17T07:20:59.007Z,15.80
2023-03-17T07:21:58.999Z,17.80
2023-03-17T07:22:58.987Z,18.00
2023-03-17T07:23:58.995Z,16.70
2023-03-17T07:24:58.984Z,16.20
2023-03-17T07:25:58.978Z,17.40
2023-03-17T07:26:58.908Z,17.30
2023-03-17T07:27:58.932Z,17.00
2023-03-17T07:28:58.893Z,16.50
2023-03-17T07:29:58.914Z,16.60
2023-03-17T07:30:58.896Z,15.70
2023-03-17T07:31:58.876Z,21.30
2023-03-17T07:32:58.918Z,19.40
2023-03-17T07:33:58.861Z,16.00
2023-03-17T07:34:58.800Z,14.80
2023-03-17T07:35:58.890Z,13.30
2023-03-17T07:36:58.792Z,14.00
2023-03-17T07:37:58.807Z,16.00
2023-03-17T07:38:58.790Z,17.50
2023-03-17T07:39:58.768Z,16.00
2023-03-17T07:40:58.749Z,14.10
2023-03-17T07:41:58.720Z,14.30
2023-03-17T07:42:58.693Z,16.70
2023-03-17T07:43:58.744Z,14.40
2023-03-17T07:44:58.727Z,13.40
2023-03-17T07:45:58.724Z,13.00
2023-03-17T07:46:58.653Z,14.90
2023-03-17T07:47:58.672Z,12.90
2023-03-17T07:48:58.658Z,12.90
2023-03-17T07:49:58.652Z,15.10
2023-03-17T07:50:58.593Z,12.80
2023-03-17T07:51:58.598Z,15.90
2023-03-17T07:52:58.562Z,11.60
2023-03-17T07:53:58.580Z,10.80
2023-03-17T07:54:58.557Z,10.50
2023-03-17T07:55:58.564Z,9.10
2023-03-17T07:56:58.507Z,10.60
2023-03-17T07:57:58.604Z,13.00
2023-03-17T07:58:58.524Z,11.20
2023-03-17T07:59:58.510Z,12.10
2023-03-17T08:00:58.501Z,9.70
2023-03-17T08:01:58.553Z,8.90
2023-03-17T08:03:09.447Z,9.40
2023-03-17T08:03:58.556Z,12.00
2023-03-17T08:04:58.422Z,11.00
2023-03-17T08:05:58.420Z,10.10
2023-03-17T08:06:58.412Z,9.70
2023-03-17T08:07:58.388Z,11.20
2023-03-17T08:08:58.342Z,10.30
2023-03-17T08:09:58.390Z,11.70
2023-03-17T08:10:58.355Z,10.80
2023-03-17T08:11:58.348Z,9.60
2023-03-17T08:12:58.322Z,9.70
2023-03-17T08:13:58.345Z,8.60
2023-03-17T08:14:58.278Z,9.40
2023-03-17T08:15:58.298Z,9.90
2023-03-17T08:16:58.371Z,7.80
2023-03-17T08:17:58.283Z,9.30
2023-03-17T08:18:58.212Z,7.20
2023-03-17T08:19:58.213Z,7.60
2023-03-17T08:20:58.209Z,8.40
2023-03-17T08:21:58.232Z,9.50
2023-03-17T08:22:58.185Z,9.90
2023-03-17T08:23:58.189Z,10.30
2023-03-17T08:24:58.136Z,9.60
2023-03-17T08:25:58.139Z,8.50
2023-03-17T08:26:59.814Z,9.30
2023-03-17T08:27:58.149Z,7.60
2023-03-17T08:28:58.099Z,8.60
2023-03-17T08:29:58.089Z,8.80
2023-03-17T08:30:58.093Z,6.10
2023-03-17T08:31:58.152Z,7.50
2023-03-17T08:32:58.093Z,7.20
2023-03-17T08:33:58.040Z,7.20
2023-03-17T08:34:57.990Z,6.70
2023-03-17T08:35:58.071Z,6.10
2023-03-17T08:36:57.988Z,4.80
2023-03-17T08:37:57.984Z,5.20
2023-03-17T08:38:57.971Z,5.10
2023-03-17T08:39:57.967Z,4.70
2023-03-17T08:40:57.911Z,4.40
2023-03-17T08:41:57.934Z,4.80
2023-03-17T08:42:57.892Z,3.80
2023-03-17T08:43:57.927Z,5.70
2023-03-17T08:44:57.872Z,6.90
2023-03-17T08:45:57.911Z,5.40
2023-03-17T08:46:57.884Z,7.00
2023-03-17T08:47:57.861Z,5.10
2023-03-17T08:48:57.821Z,5.50
2023-03-17T08:49:57.826Z,9.10
2023-03-17T08:50:57.785Z,4.40
2023-03-17T08:51:57.808Z,8.00
2023-03-17T08:52:57.794Z,6.80
2023-03-17T08:53:57.774Z,7.10
2023-03-17T08:54:57.767Z,5.60
2023-03-17T08:55:57.765Z,7.10
2023-03-17T08:56:57.708Z,7.50
2023-03-17T08:57:57.717Z,8.50
2023-03-17T08:58:57.685Z,7.40
2023-03-17T08:59:57.714Z,6.40
2023-03-17T09:00:57.690Z,6.60
2023-03-17T09:01:57.696Z,6.40
2023-03-17T09:02:57.661Z,8.70
2023-03-17T09:03:57.674Z,8.40
2023-03-17T09:04:57.615Z,3.60
2023-03-17T09:05:57.676Z,5.70
2023-03-17T09:07:04.786Z,5.30
2023-03-17T09:07:57.627Z,5.00
2023-03-17T09:08:57.554Z,5.00
2023-03-17T09:09:57.607Z,5.60
2023-03-17T09:10:57.518Z,5.70
2023-03-17T09:11:57.559Z,6.30
2023-03-17T09:12:57.522Z,6.90
2023-03-17T09:13:57.526Z,23.70
2023-03-17T09:14:57.472Z,7.50
2023-03-17T09:15:57.510Z,8.00
2023-03-17T09:16:57.436Z,6.70
2023-03-17T09:17:57.513Z,7.60
2023-03-17T09:18:57.475Z,5.90
2023-03-17T09:19:57.431Z,6.30
2023-03-17T09:20:57.393Z,7.40
2023-03-17T09:21:57.417Z,6.10
2023-03-17T09:22:57.364Z,7.20
2023-03-17T09:23:57.430Z,6.60
2023-03-17T09:24:57.338Z,6.30
2023-03-17T09:25:57.339Z,6.90
2023-03-17T09:26:57.307Z,6.70
2023-03-17T09:27:57.308Z,6.50
2023-03-17T09:28:57.309Z,5.80
2023-03-17T09:29:57.302Z,5.40
2023-03-17T09:30:57.286Z,6.40
2023-03-17T09:31:57.302Z,5.50
2023-03-17T09:32:57.322Z,5.00
2023-03-17T09:33:57.263Z,6.30
2023-03-17T09:34:57.198Z,7.00
2023-03-17T09:35:57.311Z,7.20
2023-03-17T09:36:57.179Z,18.70
2023-03-17T09:37:57.186Z,19.80
2023-03-17T09:38:57.177Z,25.60
2023-03-17T09:39:57.252Z,13.60
2023-03-17T09:40:57.116Z,7.80
2023-03-17T09:41:57.174Z,8.60
2023-03-17T09:42:57.087Z,6.20
2023-03-17T09:43:57.153Z,6.80
2023-03-17T09:44:57.074Z,7.50
2023-03-17T09:45:57.097Z,6.90
2023-03-17T09:46:57.124Z,6.20
2023-03-17T09:47:57.063Z,6.40
2023-03-17T09:48:57.022Z,7.70
2023-03-17T09:49:57.061Z,5.90
2023-03-17T09:50:56.972Z,7.40
2023-03-17T09:51:57.017Z,8.70
2023-03-17T09:52:56.987Z,5.90
2023-03-17T09:53:56.962Z,7.30
2023-03-17T09:54:56.933Z,5.10
2023-03-17T09:55:56.961Z,5.80
2023-03-17T09:56:56.916Z,6.90
2023-03-17T09:57:56.947Z,5.30
2023-03-17T09:58:56.876Z,7.00
2023-03-17T09:59:56.902Z,8.40
2023-03-17T10:00:56.879Z,6.10
2023-03-17T10:01:56.883Z,9.00
2023-03-17T10:02:56.828Z,6.00
2023-03-17T10:03:56.830Z,13.40
2023-03-17T10:04:56.859Z,10.70
2023-03-17T10:05:56.836Z,15.80
2023-03-17T10:06:56.799Z,14.80
2023-03-17T10:07:56.791Z,38.30
2023-03-17T10:08:56.773Z,12.10
2023-03-17T10:09:56.785Z,6.60
2023-03-17T10:10:56.734Z,7.60
2023-03-17T10:11:56.740Z,16.60
2023-03-17T10:12:56.697Z,10.40
2023-03-17T10:13:56.702Z,13.30
2023-03-17T10:14:56.707Z,7.60
2023-03-17T10:15:56.742Z,9.10
2023-03-17T10:16:56.636Z,7.10
2023-03-17T10:17:56.650Z,9.20
2023-03-17T10:18:56.624Z,10.00
2023-03-17T10:19:56.602Z,7.70
2023-03-17T10:20:56.620Z,8.40
2023-03-17T10:21:56.626Z,8.40
2023-03-17T10:22:56.587Z,8.60
2023-03-17T10:23:56.576Z,8.30
2023-03-17T10:24:56.584Z,7.00
2023-03-17T10:25:56.537Z,6.10
2023-03-17T10:26:56.518Z,9.10
2023-03-17T10:27:56.513Z,8.30
2023-03-17T10:28:56.491Z,8.50
2023-03-17T10:29:56.493Z,6.80
2023-03-17T10:30:56.502Z,6.80
2023-03-17T10:31:58.391Z,7.40
2023-03-17T10:32:56.549Z,7.00
2023-03-17T10:33:56.444Z,7.60
2023-03-17T10:34:56.394Z,8.00
2023-03-17T10:35:56.477Z,8.10
2023-03-17T10:36:56.376Z,8.40
2023-03-17T10:38:11.778Z,6.90
2023-03-17T10:38:56.377Z,6.90
2023-03-17T10:39:56.393Z,6.80
2023-03-17T10:40:56.319Z,7.90
2023-03-17T10:41:56.317Z,10.70
2023-03-17T10:42:56.332Z,11.00
2023-03-17T10:43:56.315Z,8.70
2023-03-17T10:44:56.299Z,7.80
2023-03-17T10:45:56.287Z,7.20
2023-03-17T10:46:56.476Z,6.80
2023-03-17T10:47:56.272Z,6.30
2023-03-17T10:48:56.209Z,8.20
2023-03-17T10:49:56.251Z,6.60
2023-03-17T10:50:56.240Z,6.80
2023-03-17T10:51:56.216Z,5.60
2023-03-17T10:52:56.174Z,6.90
2023-03-17T10:53:56.179Z,7.90
2023-03-17T10:54:56.144Z,6.60
2023-03-17T10:55:56.150Z,6.70
2023-03-17T10:56:58.888Z,8.40
2023-03-17T10:57:56.110Z,7.80
2023-03-17T10:58:56.138Z,7.20
2023-03-17T10:59:56.105Z,6.40
2023-03-17T11:00:56.120Z,7.30
2023-03-17T11:01:56.034Z,6.60
2023-03-17T11:02:56.093Z,6.90
2023-03-17T11:03:56.057Z,7.70
2023-03-17T11:04:56.016Z,7.30
2023-03-17T11:05:55.996Z,8.20
2023-03-17T11:06:56.017Z,8.30
2023-03-17T11:07:56.025Z,7.60
2023-03-17T11:08:55.981Z,7.20
2023-03-17T11:09:55.959Z,9.20
2023-03-17T11:10:55.918Z,7.00
2023-03-17T11:11:55.937Z,7.70
2023-03-17T11:12:55.908Z,6.80
2023-03-17T11:13:55.928Z,6.50
2023-03-17T11:14:55.862Z,12.40
2023-03-17T11:15:55.933Z,7.10
2023-03-17T11:16:55.871Z,7.80
2023-03-17T11:17:55.895Z,11.90
2023-03-17T11:18:55.824Z,9.20
2023-03-17T11:19:55.838Z,7.50
2023-03-17T11:20:55.806Z,8.10
2023-03-17T11:21:55.874Z,7.20
2023-03-17T11:22:55.756Z,9.80
2023-03-17T11:23:55.768Z,8.70
2023-03-17T11:24:55.785Z,6.90
2023-03-17T11:25:55.774Z,8.00
2023-03-17T11:26:55.723Z,8.70
2023-03-17T11:27:55.704Z,8.40
2023-03-17T11:28:55.688Z,9.00
2023-03-17T11:29:55.707Z,7.60
2023-03-17T11:30:55.696Z,7.00
2023-03-17T11:31:55.660Z,8.20
2023-03-17T11:32:55.652Z,6.60
2023-03-17T11:33:55.642Z,6.70
2023-03-17T11:34:55.625Z,7.70
2023-03-17T11:35:55.630Z,10.10
2023-03-17T11:36:57.415Z,7.60
2023-03-17T11:37:55.630Z,8.20
2023-03-17T11:38:55.564Z,7.80
2023-03-17T11:39:55.560Z,7.60
2023-03-17T11:40:55.546Z,7.00
2023-03-17T11:41:55.525Z,8.00
2023-03-17T11:42:56.042Z,7.40
2023-03-17T11:43:55.523Z,8.30
2023-03-17T11:44:55.484Z,6.40
2023-03-17T11:45:55.522Z,7.40
2023-03-17T11:46:55.452Z,6.90
2023-03-17T11:47:55.479Z,6.80
2023-03-17T11:48:55.413Z,7.30
2023-03-17T11:49:55.434Z,6.70
2023-03-17T11:50:55.374Z,7.90
2023-03-17T11:51:55.413Z,10.10
2023-03-17T11:52:55.384Z,7.70
2023-03-17T11:53:55.408Z,7.10
2023-03-17T11:54:57.108Z,7.50
2023-03-17T11:55:55.393Z,7.00
2023-03-17T11:56:55.303Z,7.70
2023-03-17T11:57:55.317Z,8.10
2023-03-17T11:58:55.287Z,7.20
2023-03-17T11:59:55.284Z,7.90
2023-03-17T12:00:55.247Z,8.10
2023-03-17T12:01:55.272Z,6.70
2023-03-17T12:02:55.239Z,8.70
2023-03-17T12:03:55.396Z,7.00
2023-03-17T12:04:55.182Z,6.80
2023-03-17T12:05:55.218Z,8.10
2023-03-17T12:06:56.130Z,6.30
2023-03-17T12:07:55.156Z,4.80
2023-03-17T12:08:55.154Z,7.30
2023-03-17T12:09:55.166Z,7.10
2023-03-17T12:10:55.098Z,7.70
2023-03-17T12:11:55.129Z,8.10
2023-03-17T12:12:55.080Z,5.30
2023-03-17T12:13:55.089Z,6.70
2023-03-17T12:14:55.086Z,6.80
2023-03-17T12:15:55.093Z,7.40
2023-03-17T12:16:55.024Z,7.20
2023-03-17T12:17:55.728Z,8.90
2023-03-17T12:18:55.025Z,7.70
2023-03-17T12:19:55.043Z,8.70
2023-03-17T12:20:54.974Z,7.70
2023-03-17T12:21:54.978Z,7.10
2023-03-17T12:22:56.015Z,7.10
2023-03-17T12:23:54.982Z,7.00
2023-03-17T12:24:54.967Z,5.50
2023-03-17T12:25:54.934Z,5.80
2023-03-17T12:26:54.917Z,5.10
2023-03-17T12:27:54.902Z,6.50
2023-03-17T12:28:56.171Z,5.60
2023-03-17T12:29:54.888Z,5.00
2023-03-17T12:30:54.906Z,6.10
2023-03-17T12:31:54.866Z,5.10
2023-03-17T12:32:54.901Z,7.70
2023-03-17T12:33:54.843Z,6.40
2023-03-17T12:34:57.044Z,7.20
2023-03-17T12:35:54.801Z,6.00
2023-03-17T12:36:54.803Z,7.20
2023-03-17T12:37:54.822Z,6.20
2023-03-17T12:38:54.734Z,7.20
2023-03-17T12:39:54.752Z,7.40
2023-03-17T12:40:54.696Z,5.20
2023-03-17T12:41:55.423Z,5.40
2023-03-17T12:42:54.755Z,4.80
2023-03-17T12:43:54.688Z,5.50
2023-03-17T12:44:54.670Z,5.50
2023-03-17T12:45:54.822Z,5.40
2023-03-17T12:46:54.674Z,7.70
2023-03-17T12:47:54.686Z,7.60
2023-03-17T12:48:54.624Z,6.20
2023-03-17T12:49:54.612Z,8.30
2023-03-17T12:50:54.559Z,5.80
2023-03-17T12:51:54.589Z,7.80
2023-03-17T12:52:54.560Z,6.40
2023-03-17T12:53:54.585Z,5.90
2023-03-17T12:54:54.532Z,5.90
2023-03-17T12:55:54.538Z,6.40
2023-03-17T12:56:54.485Z,5.60
2023-03-17T12:57:54.580Z,6.90
2023-03-17T12:58:54.500Z,4.70
2023-03-17T12:59:54.482Z,7.20
2023-03-17T13:00:54.472Z,6.80
2023-03-17T13:01:54.527Z,5.50
2023-03-17T13:02:54.433Z,6.80
2023-03-17T13:03:54.426Z,7.10
2023-03-17T13:04:54.405Z,4.70
2023-03-17T13:05:54.410Z,6.70
2023-03-17T13:06:55.290Z,4.50
2023-03-17T13:07:54.369Z,6.00
2023-03-17T13:08:54.340Z,6.40
2023-03-17T13:09:54.367Z,5.60